Time;durP1;ratioP1;P1;durP2;ratioP2;P2;SDS_P1;SDS_P2;PMS_P1;PMS_P2;Temp;Humidity;BMP_temperature;BMP_pressure;BME280_temperature;BME280_humidity;BME280_pressure;Samples;Min_cycle;Max_cycle;Signal;HPM_P1;HPM_P2
2021/04/02 00:00:56;;;;;;;24.32;17.62;;;;;;;11.07;64.37;98769.16;1781343;78;21486;-58
2021/04/02 00:03:26;;;;;;;;;;;;;;;11.18;64.08;98758.48;1774361;79;21154;-58
2021/04/02 00:05:55;;;;;;;28.05;16.40;;;;;;;11.15;63.91;98754.70;1794357;78;20301;-58
2021/04/02 00:08:23;;;;;;;21.70;17.07;;;;;;;11.14;63.72;98751.72;1742764;79;21809;-57
2021/04/02 00:10:55;;;;;;;25.32;18.30;;;;;;;11.14;63.73;98747.77;1741259;79;21566;-59
2021/04/02 00:13:31;;;;;;;27.77;17.90;;;;;;;11.17;63.69;98736.59;1760828;79;21635;-60
2021/04/02 00:15:59;;;;;;;25.70;17.32;;;;;;;11.15;63.84;98732.34;1763399;78;21634;-58
2021/04/02 00:18:27;;;;;;;23.05;17.50;;;;;;;11.08;63.96;98719.56;1764470;78;21566;-58
2021/04/02 00:20:58;;;;;;;24.32;17.73;;;;;;;11.03;64.47;98709.77;1767564;78;21895;-59
2021/04/02 00:23:26;;;;;;;23.27;17.12;;;;;;;10.99;64.85;98711.38;1767919;78;21634;-58
2021/04/02 00:25:55;;;;;;;24.27;16.80;;;;;;;10.93;65.04;98702.55;1765899;79;21600;-57
2021/04/02 00:28:25;;;;;;;24.60;18.12;;;;;;;10.87;65.30;98700.65;1759204;79;21575;-57
2021/04/02 00:30:56;;;;;;;25.30;17.42;;;;;;;10.81;64.89;98690.50;1763576;78;21654;-58
2021/04/02 00:33:27;;;;;;;27.67;17.55;;;;;;;10.79;64.77;98689.72;1769065;79;22013;-58
2021/04/02 00:35:55;;;;;;;23.87;16.42;;;;;;;10.81;64.41;98693.57;1783129;78;21646;-57
2021/04/02 00:38:24;;;;;;;21.60;16.37;;;;;;;10.80;64.22;98686.64;1777586;78;21628;-57
2021/04/02 00:41:10;;;;;;;24.02;16.27;;;;;;;10.82;63.91;98675.08;1767803;78;21610;-58
2021/04/02 00:43:42;;;;;;;22.67;16.55;;;;;;;10.82;63.87;98663.73;1761998;78;21131;-57
2021/04/02 00:46:10;;;;;;;24.27;16.25;;;;;;;10.79;63.87;98663.89;1780929;78;22070;-57
2021/04/02 00:48:41;;;;;;;27.15;16.75;;;;;;;10.75;63.78;98659.28;1787057;78;21652;-57
2021/04/02 00:51:13;;;;;;;22.27;16.87;;;;;;;10.73;63.78;98651.95;1789275;78;21548;-58
2021/04/02 00:53:42;;;;;;;25.95;18.65;;;;;;;10.71;63.68;98652.52;1789650;77;21703;-57
2021/04/02 00:56:11;;;;;;;23.65;18.02;;;;;;;10.72;63.50;98650.28;1782361;78;21574;-57
2021/04/02 00:58:39;;;;;;;27.73;17.12;;;;;;;10.71;63.41;98645.47;1786430;77;21919;-57
2021/04/02 01:01:08;;;;;;;26.52;17.98;;;;;;;10.71;63.43;98634.95;1783946;78;21588;-57
2021/04/02 01:03:37;;;;;;;21.20;15.95;;;;;;;10.68;63.54;98630.34;1783837;78;21560;-57
2021/04/02 01:06:17;;;;;;;26.93;18.50;;;;;;;10.64;63.51;98635.41;1786042;77;21617;-57
2021/04/02 01:08:45;;;;;;;20.80;16.07;;;;;;;10.59;63.64;98626.50;1773698;79;21144;-57
2021/04/02 01:11:17;;;;;;;21.97;16.85;;;;;;;10.52;63.68;98619.42;1783590;77;22037;-57
2021/04/02 01:13:52;;;;;;;23.70;15.45;;;;;;;10.48;63.68;98617.92;1785444;77;21565;-60
2021/04/02 01:16:24;;;;;;;25.12;16.57;;;;;;;10.44;63.68;98613.78;1800422;77;21527;-57
2021/04/02 01:19:19;;;;;;;23.25;16.65;;;;;;;10.40;63.42;98608.34;1781304;78;21746;-58
2021/04/02 01:22:06;;;;;;;22.30;16.37;;;;;;;10.37;63.32;98616.39;1788191;78;21227;-57
2021/04/02 01:24:52;;;;;;;26.45;15.95;;;;;;;10.34;63.13;98611.33;1780688;78;22065;-57
2021/04/02 01:27:35;;;;;;;21.05;15.32;;;;;;;10.32;63.06;98613.17;1798601;78;21676;-58
2021/04/02 01:30:09;;;;;;;28.98;15.72;;;;;;;10.29;62.93;98609.40;1774600;79;21534;-57
2021/04/02 01:32:41;;;;;;;24.57;16.25;;;;;;;10.29;62.81;98613.34;1790807;77;21179;-57
2021/04/02 01:35:20;;;;;;;21.35;15.28;;;;;;;10.24;62.98;98603.08;1766941;79;21550;-57
2021/04/02 01:38:30;;;;;;;26.02;15.43;;;;;;;10.21;63.13;98594.53;1787073;78;21946;-57
2021/04/02 01:41:02;;;;;;;21.57;14.80;;;;;;;10.19;63.17;98595.95;1642264;84;21149;-57
2021/04/02 01:43:35;;;;;;;22.13;14.80;;;;;;;10.15;63.21;98582.59;1680333;84;21650;-58
2021/04/02 01:46:06;;;;;;;19.45;14.98;;;;;;;10.13;63.34;98580.09;1674643;83;21614;-58
2021/04/02 01:48:35;;;;;;;23.62;16.57;;;;;;;10.09;63.50;98574.60;1672613;84;21599;-57
2021/04/02 01:51:04;;;;;;;21.62;14.83;;;;;;;10.06;63.70;98572.66;1659224;85;22061;-58
2021/04/02 01:53:40;;;;;;;20.32;14.78;;;;;;;10.14;64.36;98570.41;1652537;85;21661;-61
2021/04/02 01:56:10;;;;;;;21.50;15.55;;;;;;;10.23;64.10;98557.22;1668373;84;21646;-59
2021/04/02 01:58:41;;;;;;;20.85;14.65;;;;;;;10.23;63.86;98572.98;1659658;85;21667;-58
2021/04/02 02:01:13;;;;;;;21.10;15.20;;;;;;;10.21;63.79;98568.27;1670218;84;21659;-58
2021/04/02 02:03:42;;;;;;;23.75;15.80;;;;;;;10.19;63.83;98567.51;1681630;84;22062;-58
2021/04/02 02:06:12;;;;;;;24.20;16.02;;;;;;;10.13;63.87;98557.76;1680913;83;21584;-58
2021/04/02 02:08:42;;;;;;;24.35;15.88;;;;;;;10.10;64.00;98547.42;1646212;83;21705;-59
2021/04/02 02:11:18;;;;;;;23.00;14.00;;;;;;;10.08;64.11;98553.23;1659429;85;21587;-58
2021/04/02 02:13:57;;;;;;;16.85;13.68;;;;;;;10.06;64.25;98548.54;1661920;84;21702;-58
2021/04/02 02:16:29;;;;;;;22.30;15.13;;;;;;;10.02;64.21;98543.09;1622023;85;22076;-58
2021/04/02 02:18:59;;;;;;;20.27;15.18;;;;;;;10.01;64.15;98537.45;1647051;85;21712;-58
2021/04/02 02:21:28;;;;;;;21.62;15.50;;;;;;;9.97;64.27;98539.88;1646536;85;21678;-58
2021/04/02 02:23:58;;;;;;;21.62;14.83;;;;;;;9.92;64.45;98537.50;1621731;85;21645;-58
2021/04/02 02:26:27;;;;;;;20.65;14.80;;;;;;;9.87;64.51;98541.33;1645027;85;21310;-58
2021/04/02 02:28:57;;;;;;;20.55;14.23;;;;;;;9.83;64.56;98536.75;1644527;85;22014;-58
2021/04/02 02:31:27;;;;;;;21.55;15.78;;;;;;;9.78;64.60;98534.00;1641370;85;21785;-59
2021/04/02 02:33:55;;;;;;;22.40;14.78;;;;;;;9.76;64.38;98536.71;1665639;84;22069;-58
2021/04/02 02:36:25;;;;;;;18.87;14.70;;;;;;;9.76;63.92;98528.84;1663091;84;21174;-58
2021/04/02 02:38:54;;;;;;;18.82;15.60;;;;;;;9.79;63.42;98531.27;1662852;84;21603;-58
2021/04/02 02:41:27;;;;;;;21.73;14.33;;;;;;;9.79;63.19;98535.20;1688532;83;21922;-58
2021/04/02 02:43:57;;;;;;;21.20;15.65;;;;;;;9.65;63.03;98518.11;1694774;83;21633;-61
2021/04/02 02:46:26;;;;;;;20.27;15.18;;;;;;;9.78;62.93;98528.28;1690510;83;21584;-58
2021/04/02 02:49:15;;;;;;;21.45;14.78;;;;;;;9.78;62.90;98527.44;1696664;82;21560;-59
2021/04/02 02:51:45;;;;;;;25.32;16.07;;;;;;;9.77;62.93;98532.30;1712654;82;21674;-58
2021/04/02 02:54:21;;;;;;;24.20;17.37;;;;;;;9.77;62.79;98532.30;1685036;83;21694;-60
2021/04/02 02:56:52;;;;;;;23.12;16.60;;;;;;;9.73;62.89;98525.90;1666648;82;21682;-59
2021/04/02 02:59:22;;;;;;;24.98;15.65;;;;;;;9.71;62.91;98533.02;1702546;82;21680;-58
2021/04/02 03:01:51;;;;;;;21.05;15.83;;;;;;;9.70;62.67;98527.41;1695631;82;21194;-59
2021/04/02 03:04:21;;;;;;;22.80;16.80;;;;;;;9.67;62.58;98528.88;1707190;82;21806;-58
2021/04/02 03:06:51;;;;;;;25.05;16.90;;;;;;;9.68;62.04;98527.09;1695029;82;21646;-58
2021/04/02 03:09:19;;;;;;;25.23;16.40;;;;;;;9.63;62.00;98533.09;1690029;83;21658;-59
2021/04/02 03:11:49;;;;;;;27.13;17.42;;;;;;;9.62;61.88;98522.20;1655378;83;21627;-58
2021/04/02 03:14:20;;;;;;;23.85;16.50;;;;;;;9.62;61.48;98529.60;1703887;82;21650;-58
2021/04/02 03:16:51;;;;;;;27.13;17.52;;;;;;;9.59;61.45;98532.42;1702485;82;21555;-59
2021/04/02 03:19:22;;;;;;;20.62;16.23;;;;;;;9.59;61.18;98527.61;1703690;82;21677;-59
2021/04/02 03:21:53;;;;;;;21.12;16.23;;;;;;;9.60;60.92;98530.16;1705231;82;21602;-60
2021/04/02 03:24:23;;;;;;;21.20;15.08;;;;;;;9.59;60.57;98523.67;1701512;82;21600;-60
2021/04/02 03:26:54;;;;;;;23.12;15.25;;;;;;;9.59;60.16;98519.74;1706236;82;21562;-59
2021/04/02 03:29:24;;;;;;;22.73;15.65;;;;;;;9.54;60.20;98523.95;1701092;82;21678;-60
2021/04/02 03:31:56;;;;;;;24.85;16.32;;;;;;;9.51;60.19;98538.10;1682776;83;21616;-60
2021/04/02 03:34:25;;;;;;;25.37;16.60;;;;;;;9.51;60.36;98551.66;1676218;82;21622;-58
2021/04/02 03:36:55;;;;;;;25.80;15.68;;;;;;;9.48;60.22;98554.00;1643767;82;21645;-59
2021/04/02 03:39:29;;;;;;;25.90;16.10;;;;;;;9.47;60.27;98559.33;1694624;83;21666;-58
2021/04/02 03:42:01;;;;;;;20.75;16.15;;;;;;;9.46;59.92;98544.53;1692713;82;21525;-59
2021/04/02 03:44:32;;;;;;;20.82;15.58;;;;;;;9.47;59.90;98540.97;1695179;83;22058;-60
2021/04/02 03:47:03;;;;;;;22.30;16.00;;;;;;;9.46;59.95;98545.37;1665396;83;21679;-60
2021/04/02 03:49:35;;;;;;;22.22;15.75;;;;;;;9.43;59.97;98552.09;1694653;83;21652;-59
2021/04/02 03:52:06;;;;;;;23.57;15.55;;;;;;;9.42;59.94;98554.35;1703007;83;21647;-59
2021/04/02 03:54:36;;;;;;;28.57;16.20;;;;;;;9.39;59.87;98552.36;1669123;83;21134;-58
2021/04/02 03:57:06;;;;;;;24.32;15.85;;;;;;;9.35;59.89;98543.81;1693760;83;21644;-59
2021/04/02 03:59:36;;;;;;;23.95;16.27;;;;;;;9.33;59.94;98536.02;1697260;82;21650;-59
2021/04/02 04:02:06;;;;;;;23.52;15.72;;;;;;;9.33;60.01;98521.59;1699091;83;21636;-58
2021/04/02 04:04:34;;;;;;;20.23;15.28;;;;;;;9.29;60.10;98518.77;1691743;83;21629;-58
2021/04/02 04:07:04;;;;;;;23.42;15.90;;;;;;;9.28;60.26;98520.16;1657181;82;21601;-58
2021/04/02 04:09:36;;;;;;;25.90;16.57;;;;;;;9.27;60.17;98531.13;1684718;83;21245;-59
2021/04/02 04:12:07;;;;;;;23.95;15.98;;;;;;;9.28;60.16;98530.17;1712589;82;21490;-59
2021/04/02 04:14:39;;;;;;;22.98;16.12;;;;;;;9.24;60.10;98512.08;1674472;82;21595;-59
2021/04/02 04:17:11;;;;;;;25.88;14.95;;;;;;;9.24;60.13;98502.43;1687463;83;21572;-60
2021/04/02 04:19:41;;;;;;;22.22;15.65;;;;;;;9.27;60.10;98508.83;1667537;82;21586;-59
2021/04/02 04:22:11;;;;;;;25.37;16.82;;;;;;;9.28;59.98;98509.19;1704155;82;22075;-58
2021/04/02 04:24:42;;;;;;;24.98;15.13;;;;;;;9.28;59.88;98511.81;1703133;82;21678;-58
2021/04/02 04:27:10;;;;;;;25.50;15.50;;;;;;;9.27;59.97;98521.94;1677207;82;22265;-58
2021/04/02 04:29:41;;;;;;;22.90;16.65;;;;;;;9.25;60.01;98523.80;1694022;82;21288;-59
2021/04/02 04:32:12;;;;;;;26.20;16.48;;;;;;;9.24;60.08;98513.39;1707043;82;21254;-58
2021/04/02 04:34:40;;;;;;;25.72;15.83;;;;;;;9.28;60.09;98511.81;1706545;82;21893;-59
2021/04/02 04:37:08;;;;;;;22.25;16.05;;;;;;;9.30;59.96;98505.17;1695268;83;21201;-58
2021/04/02 04:39:36;;;;;;;22.50;15.60;;;;;;;9.33;59.92;98508.95;1706330;82;21580;-58
2021/04/02 04:42:06;;;;;;;19.70;15.80;;;;;;;9.34;59.83;98504.94;1701654;82;21658;-58
2021/04/02 04:47:25;;;;;;;24.30;16.65;;;;;;;9.36;59.97;98507.45;1748008;79;23149;-59
2021/04/02 04:49:53;;;;;;;23.25;16.52;;;;;;;9.34;60.01;98503.62;1714431;82;21648;-59
2021/04/02 04:52:22;;;;;;;23.27;16.00;;;;;;;9.36;60.00;98510.08;1705020;82;21893;-59
2021/04/02 04:54:52;;;;;;;22.67;16.37;;;;;;;9.37;60.06;98502.59;1705013;82;21575;-59
2021/04/02 04:57:20;;;;;;;28.12;16.80;;;;;;;9.42;60.06;98512.38;1711086;80;21608;-56
2021/04/02 04:59:52;;;;;;;24.98;16.87;;;;;;;9.45;59.90;98518.74;1711965;82;21678;-58
2021/04/02 05:02:20;;;;;;;25.50;16.02;;;;;;;9.48;59.93;98505.94;1711880;80;21635;-59
2021/04/02 05:04:48;;;;;;;32.83;17.73;;;;;;;9.52;59.94;98519.26;1695367;82;21976;-59
2021/04/02 05:07:19;;;;;;;24.18;17.50;;;;;;;9.53;59.85;98525.73;1710263;80;21202;-58
2021/04/02 05:09:47;;;;;;;26.93;17.45;;;;;;;9.57;59.89;98522.48;1713266;80;22151;-59
2021/04/02 05:12:16;;;;;;;27.50;17.30;;;;;;;9.59;59.85;98521.92;1671317;83;21638;-59
2021/04/02 05:14:44;;;;;;;22.32;16.62;;;;;;;9.60;59.91;98523.59;1687196;82;21202;-59
2021/04/02 05:17:12;;;;;;;22.45;16.32;;;;;;;9.63;59.83;98523.44;1668495;83;22110;-59
2021/04/02 05:19:40;;;;;;;;;;;;;;;9.64;59.74;98521.17;1686946;83;21640;-58
2021/04/02 05:22:09;;;;;;;;;;;;;;;9.62;59.61;98520.41;1692814;80;20571;-59
2021/04/02 05:24:37;;;;;;;27.98;17.92;;;;;;;9.57;59.83;98521.16;1711986;82;20294;-60
2021/04/02 05:27:06;;;;;;;29.63;18.75;;;;;;;9.55;59.91;98528.28;1707367;82;21656;-59
2021/04/02 05:29:34;;;;;;;32.42;20.80;;;;;;;9.58;60.20;98532.50;1716049;80;22060;-59
2021/04/02 05:32:03;;;;;;;32.85;19.77;;;;;;;9.58;60.35;98530.71;1709741;82;21572;-62
2021/04/02 05:34:31;;;;;;;28.10;20.02;;;;;;;9.56;60.54;98518.15;1707201;80;21192;-59
2021/04/02 05:37:02;;;;;;;27.32;20.02;;;;;;;9.58;60.66;98511.50;1713403;82;21579;-56
2021/04/02 05:39:31;;;;;;;30.68;20.80;;;;;;;9.62;60.55;98505.98;1707423;80;21615;-58
2021/04/02 05:42:03;;;;;;;29.25;20.17;;;;;;;9.67;60.42;98496.08;1709615;80;22471;-61
2021/04/02 05:44:34;;;;;;;29.37;18.98;;;;;;;9.69;61.04;98487.64;1710793;82;21229;-63
2021/04/02 05:47:06;;;;;;;30.27;20.10;;;;;;;9.72;61.78;98479.60;1705011;80;21673;-58
2021/04/02 05:49:34;;;;;;;25.00;18.00;;;;;;;9.72;62.46;98459.92;1705145;81;21501;-59
2021/04/02 05:52:04;;;;;;;27.90;18.07;;;;;;;9.81;64.12;98452.43;1706839;82;21553;-57
2021/04/02 05:54:42;;;;;;;24.35;17.23;;;;;;;9.98;64.50;98443.08;1697217;82;22057;-58
2021/04/02 05:57:10;;;;;;;20.55;15.48;;;;;;;10.04;64.60;98443.19;1698714;82;21647;-66
2021/04/02 05:59:39;;;;;;;24.50;17.73;;;;;;;10.08;64.51;98436.36;1699630;82;21616;-59
2021/04/02 06:02:11;;;;;;;27.98;18.32;;;;;;;10.11;64.16;98449.32;1697911;80;21587;-60
2021/04/02 06:04:39;;;;;;;25.55;18.30;;;;;;;10.13;63.33;98461.02;1711747;82;21598;-60
2021/04/02 06:07:07;;;;;;;30.57;17.75;;;;;;;10.08;63.15;98456.06;1710001;80;21968;-62
2021/04/02 06:09:34;;;;;;;;;;;;;;;10.10;62.82;98475.19;1715262;81;21679;-60
2021/04/02 06:12:03;;;;;;;22.48;16.87;;;;;;;10.13;62.24;98475.47;1708349;81;20608;-60
2021/04/02 06:14:32;;;;;;;23.52;17.77;;;;;;;10.12;62.23;98486.45;1712761;82;21607;-60
2021/04/02 06:16:59;;;;;;;24.47;18.17;;;;;;;10.17;62.06;98484.87;1712221;82;21608;-60
2021/04/02 06:19:27;;;;;;;25.25;18.95;;;;;;;10.21;61.89;98478.95;1712406;80;22061;-59
2021/04/02 06:21:56;;;;;;;25.95;19.00;;;;;;;10.29;62.07;98484.61;1713190;80;21587;-58
2021/04/02 06:24:40;;;;;;;26.75;18.65;;;;;;;10.37;62.03;98493.38;1707805;82;21113;-60
2021/04/02 06:27:11;;;;;;;28.17;18.10;;;;;;;10.40;61.85;98494.03;1709142;81;21716;-59
2021/04/02 06:29:44;;;;;;;28.32;18.57;;;;;;;10.41;61.80;98493.55;1719121;81;21643;-59
2021/04/02 06:32:17;;;;;;;27.50;18.80;;;;;;;10.42;61.74;98497.89;1707312;82;21907;-57
2021/04/02 06:34:50;;;;;;;27.90;16.40;;;;;;;10.43;61.76;98512.70;1711826;80;21150;-57
2021/04/02 06:37:19;;;;;;;27.07;17.25;;;;;;;10.41;61.73;98528.55;1708326;80;21676;-56
2021/04/02 06:39:51;;;;;;;31.40;17.77;;;;;;;10.39;61.84;98525.66;1707564;82;22856;-57
2021/04/02 06:42:31;;;;;;;31.35;17.82;;;;;;;10.38;61.97;98536.64;1679671;83;21643;-61
2021/04/02 06:45:06;;;;;;;26.85;18.05;;;;;;;10.39;62.11;98543.56;1678119;82;22045;-58
2021/04/02 06:47:39;;;;;;;33.18;21.12;;;;;;;10.42;62.35;98547.34;1677047;82;21568;-58
2021/04/02 06:50:20;;;;;;;32.88;20.00;;;;;;;10.41;62.77;98543.01;1711447;80;21636;-57
2021/04/02 06:52:57;;;;;;;36.30;22.40;;;;;;;10.42;63.51;98548.66;1714231;80;21659;-58
2021/04/02 06:55:26;;;;;;;34.03;22.37;;;;;;;10.39;63.32;98554.08;1711250;80;21149;-56
2021/04/02 06:57:55;;;;;;;34.00;22.60;;;;;;;10.37;63.59;98549.39;1716768;80;21580;-56
2021/04/02 07:00:26;;;;;;;37.42;20.77;;;;;;;10.37;63.70;98554.64;1718868;80;21659;-56
2021/04/02 07:02:54;;;;;;;28.98;19.52;;;;;;;10.45;64.58;98551.11;1704799;80;21643;-56
2021/04/02 07:05:24;;;;;;;34.78;20.88;;;;;;;10.62;64.68;98549.23;1713736;80;21694;-55
2021/04/02 07:08:07;;;;;;;27.75;19.40;;;;;;;10.61;64.68;98555.44;1706220;82;21604;-55
2021/04/02 07:10:37;;;;;;;27.98;20.12;;;;;;;10.62;64.83;98555.80;1670229;84;22098;-55
2021/04/02 07:13:08;;;;;;;26.73;20.05;;;;;;;10.66;64.75;98565.19;1666108;84;21627;-58
2021/04/02 07:15:37;;;;;;;30.02;21.27;;;;;;;10.63;64.85;98565.39;1670591;82;21481;-57
2021/04/02 07:18:07;;;;;;;30.40;20.68;;;;;;;10.55;65.36;98572.42;1674116;82;21580;-58
2021/04/02 07:20:35;;;;;;;24.77;20.23;;;;;;;10.48;65.26;98577.19;1677419;82;21602;-60
2021/04/02 07:23:03;;;;;;;;;;;;;;;10.47;65.41;98575.95;1666322;84;22158;-60
2021/04/02 07:25:31;;;;;;;25.27;18.32;;;;;;;10.49;66.07;98579.34;1665633;84;20614;-58
2021/04/02 07:27:59;;;;;;;24.90;18.55;;;;;;;10.39;65.94;98572.47;1671958;82;21647;-57
2021/04/02 07:30:30;;;;;;;27.77;19.67;;;;;;;10.36;66.25;98577.06;1666500;82;21640;-58
2021/04/02 07:33:01;;;;;;;25.05;18.07;;;;;;;10.39;67.07;98577.73;1673850;84;21584;-62
2021/04/02 07:35:29;;;;;;;22.95;17.52;;;;;;;10.52;67.13;98580.48;1638201;84;22058;-60
2021/04/02 07:37:58;;;;;;;25.20;19.23;;;;;;;10.53;67.26;98579.56;1658315;83;22278;-60
2021/04/02 07:40:33;;;;;;;27.90;19.62;;;;;;;10.55;67.50;98581.63;1659025;84;21701;-58
2021/04/02 07:43:06;;;;;;;23.20;18.32;;;;;;;10.58;68.25;98589.30;1655172;84;21666;-58
2021/04/02 07:45:36;;;;;;;24.77;18.67;;;;;;;10.54;68.53;98594.85;1655806;84;21690;-57
2021/04/02 07:48:25;;;;;;;24.77;17.62;;;;;;;10.50;70.75;98593.70;1682082;82;21515;-58
2021/04/02 07:51:02;;;;;;;29.82;17.62;;;;;;;10.50;71.29;98595.50;1668324;84;21554;-57
2021/04/02 07:53:35;;;;;;;23.75;18.17;;;;;;;10.54;71.15;98600.95;1673626;83;21177;-58
2021/04/02 07:56:08;;;;;;;24.55;17.82;;;;;;;10.49;71.09;98598.60;1661208;83;21687;-59
2021/04/02 07:58:52;;;;;;;24.65;18.87;;;;;;;10.52;71.18;98594.94;1657878;83;21682;-58
2021/04/02 08:01:23;;;;;;;30.30;19.73;;;;;;;10.51;71.35;98609.03;1711192;82;22075;-58
2021/04/02 08:03:52;;;;;;;25.92;18.40;;;;;;;10.47;71.69;98602.23;1707396;81;21636;-59
2021/04/02 08:06:37;;;;;;;24.23;18.35;;;;;;;10.52;72.30;98602.34;1711634;81;21174;-59
2021/04/02 08:09:07;;;;;;;27.77;18.12;;;;;;;10.62;72.47;98603.11;1709040;81;21627;-55
2021/04/02 08:11:46;;;;;;;24.07;18.48;;;;;;;10.61;72.84;98600.13;1708890;82;21548;-60
2021/04/02 08:14:14;;;;;;;37.53;22.77;;;;;;;10.49;73.40;98593.34;1703650;81;21826;-56
2021/04/02 08:16:55;;;;;;;35.17;19.90;;;;;;;10.45;74.07;98601.48;1671214;82;24361;-58
2021/04/02 08:19:33;;;;;;;19.20;12.78;;;;;;;9.98;75.36;98532.36;1710704;81;21632;-59
2021/04/02 08:22:11;;;;;;;9.65;7.65;;;;;;;10.42;75.33;98605.63;1713448;81;21695;-58
2021/04/02 08:24:48;;;;;;;9.93;8.23;;;;;;;10.32;75.95;98610.10;1702888;81;21624;-57
2021/04/02 08:27:17;;;;;;;43.48;21.70;;;;;;;10.16;76.09;98607.11;1718612;81;21991;-56
2021/04/02 08:29:46;;;;;;;205.65;95.77;;;;;;;10.06;76.57;98610.73;1704570;82;21070;-57
2021/04/02 08:32:15;;;;;;;88.60;42.17;;;;;;;9.99;76.49;98621.20;1703077;81;21178;-56
2021/04/02 08:34:44;;;;;;;124.67;59.70;;;;;;;9.99;76.28;98614.63;1700289;81;21606;-56
2021/04/02 08:37:14;;;;;;;;;;;;;;;9.89;76.63;98614.31;1709365;81;21609;-57
2021/04/02 08:39:41;;;;;;;28.70;15.00;;;;;;;9.76;76.64;98623.34;1702653;81;22140;-58
2021/04/02 08:42:11;;;;;;;15.50;10.55;;;;;;;9.61;76.58;98628.97;1704395;81;25069;-57
2021/04/02 08:44:43;;;;;;;46.68;22.58;;;;;;;9.52;77.08;98625.53;1698474;82;21592;-58
2021/04/02 08:47:13;;;;;;;29.00;16.35;;;;;;;9.57;76.96;98631.83;1712196;81;21553;-60
2021/04/02 08:49:52;;;;;;;28.00;14.18;;;;;;;9.45;77.11;98627.63;1702914;82;21549;-59
2021/04/02 08:52:27;;;;;;;33.35;15.80;;;;;;;9.33;76.98;98630.94;1698316;81;22080;-59
2021/04/02 08:55:04;;;;;;;11.03;7.08;;;;;;;9.23;76.84;98624.03;1703331;81;21616;-59
2021/04/02 08:57:33;;;;;;;11.40;7.20;;;;;;;9.26;77.07;98629.09;1710200;81;21176;-59
2021/04/02 09:00:05;;;;;;;6.00;5.28;;;;;;;9.34;77.19;98630.86;1702898;82;22004;-59
2021/04/02 09:02:32;;;;;;;7.55;4.97;;;;;;;9.27;76.60;98633.42;1695609;82;21219;-59
2021/04/02 09:05:02;;;;;;;;;;;;;;;9.13;76.83;98631.98;1710147;81;21886;-59
2021/04/02 09:07:40;;;;;;;11.33;5.70;;;;;;;9.04;76.87;98635.95;1696983;81;20543;-62
2021/04/02 09:10:17;;;;;;;7.42;6.10;;;;;;;8.92;77.28;98640.52;1704160;81;21635;-58
2021/04/02 09:12:46;;;;;;;13.80;7.67;;;;;;;8.99;77.26;98644.99;1705936;81;21120;-58
2021/04/02 09:15:19;;;;;;;8.75;4.90;;;;;;;8.88;77.07;98641.61;1704469;81;21620;-62
2021/04/02 09:17:47;;;;;;;8.25;5.55;;;;;;;8.74;76.92;98648.88;1701581;82;22079;-59
2021/04/02 09:20:17;;;;;;;;;;;;;;;8.60;76.83;98648.25;1704151;82;21648;-59
2021/04/02 09:22:45;;;;;;;4.47;3.22;;;;;;;8.53;76.86;98659.52;1697041;82;20255;-55
2021/04/02 09:25:15;;;;;;;3.33;2.98;;;;;;;8.55;76.93;98648.50;1707756;81;21592;-65
2021/04/02 09:27:43;;;;;;;3.42;3.12;;;;;;;8.46;76.45;98650.73;1700582;81;21590;-54
2021/04/02 09:30:15;;;;;;;3.58;3.12;;;;;;;8.30;76.67;98662.39;1694999;82;22017;-56
2021/04/02 09:32:43;;;;;;;8.05;4.45;;;;;;;8.11;77.11;98666.36;1682316;82;21139;-60
2021/04/02 09:35:11;;;;;;;;;;;;;;;7.99;77.77;98663.41;1685070;82;21663;-57
2021/04/02 09:37:40;;;;;;;9.40;4.25;;;;;;;8.04;78.10;98667.11;1700703;81;20344;-56
2021/04/02 09:40:09;;;;;;;3.87;3.02;;;;;;;8.08;77.64;98666.06;1674122;81;21622;-57
2021/04/02 09:42:37;;;;;;;3.15;2.80;;;;;;;8.02;77.45;98661.56;1706680;81;22441;-55
2021/04/02 09:45:09;;;;;;;6.28;4.40;;;;;;;7.92;77.09;98670.33;1708025;82;21694;-60
2021/04/02 09:47:41;;;;;;;2.67;2.37;;;;;;;7.82;77.04;98668.61;1698184;82;21663;-61
2021/04/02 09:50:10;;;;;;;4.78;3.85;;;;;;;7.80;77.57;98669.14;1711755;80;21717;-59
2021/04/02 09:52:39;;;;;;;2.22;2.00;;;;;;;7.90;77.25;98670.86;1716984;80;21663;-60
2021/04/02 09:55:08;;;;;;;2.42;2.10;;;;;;;7.86;77.29;98671.93;1717403;80;22004;-59
2021/04/02 09:57:35;;;;;;;3.08;2.40;;;;;;;7.85;77.11;98668.44;1713738;80;21671;-59
2021/04/02 10:00:08;;;;;;;2.85;2.20;;;;;;;7.79;77.18;98676.59;1717627;80;21647;-59
2021/04/02 10:02:36;;;;;;;2.35;1.80;;;;;;;7.79;77.64;98677.43;1711972;80;21472;-60
2021/04/02 10:05:06;;;;;;;2.27;2.10;;;;;;;7.96;77.51;98677.11;1719083;80;21691;-59
2021/04/02 10:07:34;;;;;;;5.00;2.10;;;;;;;7.95;76.92;98680.66;1710492;80;22107;-60
2021/04/02 10:10:01;;;;;;;;;;;;;;;7.80;76.96;98678.30;1713368;82;21579;-60
2021/04/02 10:12:30;;;;;;;13.85;7.30;;;;;;;7.71;78.92;98684.80;1717249;80;20283;-59
2021/04/02 10:14:59;;;;;;;4.22;3.20;;;;;;;7.64;77.67;98678.15;1715031;80;21662;-59
2021/04/02 10:17:27;;;;;;;;;;;;;;;7.75;77.85;98681.12;1716343;80;21632;-61
2021/04/02 10:19:54;;;;;;;;;;;;;;;7.78;78.11;98686.22;1715938;80;22458;-59
2021/04/02 10:22:22;;;;;;;4.35;3.80;;;;;;;7.65;78.29;98682.91;1716191;82;20483;-60
2021/04/02 10:24:50;;;;;;;4.70;2.60;;;;;;;7.65;77.90;98677.68;1717602;82;25954;-63
2021/04/02 10:27:18;;;;;;;2.83;2.25;;;;;;;7.69;77.80;98685.34;1716532;80;21631;-63
2021/04/02 10:29:45;;;;;;;2.55;2.30;;;;;;;7.75;77.61;98682.42;1716561;80;21598;-63
2021/04/02 10:32:13;;;;;;;2.75;2.33;;;;;;;7.70;77.08;98688.79;1699725;80;22073;-65
2021/04/02 10:34:42;;;;;;;;;;;;;;;7.54;77.43;98701.73;1717323;80;21524;-61
2021/04/02 10:37:10;;;;;;;2.87;2.60;;;;;;;7.48;77.92;98705.48;1720819;80;20580;-62
2021/04/02 10:39:37;;;;;;;2.05;1.80;;;;;;;7.49;77.57;98699.78;1717851;82;21658;-62
2021/04/02 10:42:06;;;;;;;3.65;1.80;;;;;;;7.53;77.58;98702.64;1721961;80;21210;-62
2021/04/02 10:44:34;;;;;;;1.42;1.32;;;;;;;7.63;77.60;98700.02;1713409;80;22141;-59
2021/04/02 10:47:03;;;;;;;2.33;1.60;;;;;;;7.67;77.21;98702.88;1720630;82;21612;-59
2021/04/02 10:49:31;;;;;;;1.82;1.65;;;;;;;7.60;77.16;98702.30;1712788;80;21610;-55
2021/04/02 10:51:59;;;;;;;2.35;1.70;;;;;;;7.49;77.00;98703.23;1709503;82;21635;-55
2021/04/02 10:54:27;;;;;;;2.72;2.02;;;;;;;7.39;76.97;98709.34;1704723;82;21707;-55
2021/04/02 10:56:55;;;;;;;1.77;1.67;;;;;;;7.41;77.28;98705.36;1704664;82;24374;-56
2021/04/02 10:59:22;;;;;;;1.75;1.52;;;;;;;7.33;76.64;98706.17;1710280;82;21604;-55
2021/04/02 11:01:51;;;;;;;2.10;1.55;;;;;;;7.20;76.96;98708.47;1714859;80;21249;-55
2021/04/02 11:04:19;;;;;;;4.47;1.72;;;;;;;7.09;77.01;98708.09;1711452;82;21643;-57
2021/04/02 11:06:46;;;;;;;1.50;1.40;;;;;;;6.97;77.56;98718.16;1716597;80;21730;-57
2021/04/02 11:09:15;;;;;;;5.85;4.22;;;;;;;7.01;77.62;98722.34;1710115;80;22075;-55
2021/04/02 11:11:43;;;;;;;16.30;8.03;;;;;;;7.13;77.64;98729.26;1705552;80;21579;-55
2021/04/02 11:14:11;;;;;;;10.58;6.53;;;;;;;7.09;77.24;98723.78;1706485;80;21625;-56
2021/04/02 11:16:39;;;;;;;7.50;5.20;;;;;;;7.04;77.25;98717.42;1720212;80;21708;-56
2021/04/02 11:19:08;;;;;;;3.98;3.42;;;;;;;7.02;77.01;98721.88;1711645;80;21588;-55
2021/04/02 11:21:36;;;;;;;3.10;2.80;;;;;;;6.96;77.09;98724.29;1708338;80;21731;-56
2021/04/02 11:24:05;;;;;;;3.20;2.90;;;;;;;7.02;77.32;98724.48;1711800;82;21469;-60
2021/04/02 11:26:33;;;;;;;3.35;3.00;;;;;;;6.91;77.06;98730.19;1702196;82;21805;-57
2021/04/02 11:29:01;;;;;;;3.05;2.85;;;;;;;6.87;77.28;98728.59;1713669;80;21650;-56
2021/04/02 11:31:29;;;;;;;3.33;3.02;;;;;;;6.86;77.42;98730.84;1710300;80;21608;-54
2021/04/02 11:33:57;;;;;;;;;;;;;;;6.84;77.34;98731.36;1722681;80;22123;-58
2021/04/02 11:36:24;;;;;;;2.98;2.60;;;;;;;6.81;77.43;98727.56;1713120;80;27269;-57
2021/04/02 11:38:53;;;;;;;3.08;2.67;;;;;;;6.81;77.37;98728.86;1698800;81;21621;-58
2021/04/02 11:41:22;;;;;;;3.37;3.02;;;;;;;6.77;77.30;98733.36;1700701;81;21622;-57
2021/04/02 11:43:51;;;;;;;;;;;;;;;6.72;77.42;98733.16;1715114;81;21619;-57
2021/04/02 11:46:19;;;;;;;3.62;2.30;;;;;;;6.73;77.54;98738.80;1711699;80;22071;-58
2021/04/02 11:48:47;;;;;;;2.85;2.15;;;;;;;6.62;77.29;98733.54;1708916;82;21664;-55